PANW

Details ICAO PANW (KNW)
Name NEW STUYAHOK
Region USA (Alaska)
Timezone America/Anchorage (UTC-8.0)
Plans Departing 0
Arriving 0
Stats Elevation 302 ft / 92 m (AMSL)
Location 59.449875° -157.328317°
Runways 1
Magnetic Variation 13.148° E
Sunrise 2018-05-21 13:43:27 UTC / 2018-05-21 05:43:27 Local
Sunset 2018-05-22 07:11:17 UTC / 2018-05-21 23:11:17 Local
Advertisement - Login to hide

Runways

ID Width Length Bearing (true) Bearing (mag) Surface Threshold Offset Overrun Length
15 50 ft / 15 m 1,798 ft / 548 m 172.76° 159.61° Gravel 0 ft / 0 m 160 ft / 49 m
33 50 ft / 15 m 1,798 ft / 548 m 352.76° 339.61° Gravel 0 ft / 0 m 200 ft / 61 m

Map

Weather


0- 5 10 15 20 25 30 35+ Temperature / ° C

Clouds and Precipitation
Forecast for 2018-05-21 18:00 UTC. Updated 5 hours ago

Ground ~20,000 ft ~40,000 ft Winds

METAR

PANW 212156Z AUTO 35009G16KT 330V040 10SM FEW032 SCT080 BKN120 13/05 A2938 RMK AO2 SLP965 T01280050 PNO $

TAF

Not found

Frequencies

Unicom 122.90 MHz CTAF
Approach 132.75 MHz ANCHORAGE CNTR
Warning: Do not use this data for real-world aviation or navigation. No guarantee of current accuracy is given.